createdAt,value
2019-01-29T00:01:04.910Z,7.07
2019-01-29T00:06:20.601Z,6.50
2019-01-29T00:11:36.812Z,8.10
2019-01-29T00:16:52.624Z,9.17
2019-01-29T00:22:06.345Z,10.13
2019-01-29T00:27:29.109Z,9.43
2019-01-29T00:32:52.109Z,7.33
2019-01-29T00:38:14.868Z,6.90
2019-01-29T00:43:30.466Z,8.30
2019-01-29T00:48:46.416Z,11.03
2019-01-29T00:54:02.049Z,9.87
2019-01-29T00:59:18.217Z,10.90
2019-01-29T01:04:34.325Z,7.23
2019-01-29T01:09:57.128Z,7.53
2019-01-29T01:15:07.671Z,7.97
2019-01-29T01:20:23.814Z,8.20
2019-01-29T01:25:39.290Z,7.80
2019-01-29T01:30:55.374Z,5.90
2019-01-29T01:36:10.801Z,8.00
2019-01-29T01:41:26.694Z,8.80
2019-01-29T01:46:42.481Z,8.10
2019-01-29T01:51:58.569Z,7.33
2019-01-29T01:57:14.421Z,7.97
2019-01-29T02:02:30.773Z,8.03
2019-01-29T02:07:45.917Z,7.53
2019-01-29T02:13:01.377Z,10.80
2019-01-29T02:18:16.834Z,5.70
2019-01-29T02:23:32.412Z,7.53
2019-01-29T02:28:48.493Z,7.20
2019-01-29T02:34:03.687Z,10.17
2019-01-29T02:39:19.715Z,13.40
2019-01-29T02:44:37.130Z,8.93
2019-01-29T02:49:53.268Z,9.63
2019-01-29T02:55:08.876Z,10.67
2019-01-29T03:00:24.582Z,12.00
2019-01-29T03:05:40.159Z,15.07
2019-01-29T03:10:55.627Z,12.83
2019-01-29T03:16:11.725Z,11.33
2019-01-29T03:21:27.740Z,15.57
2019-01-29T03:32:14.158Z,13.37
2019-01-29T03:37:29.702Z,15.03
2019-01-29T03:42:45.153Z,14.10
2019-01-29T03:48:00.968Z,16.20
2019-01-29T03:53:16.602Z,16.67
2019-01-29T03:58:32.034Z,15.57
2019-01-29T04:03:47.696Z,15.87
2019-01-29T04:09:04.765Z,19.93
2019-01-29T04:14:20.620Z,15.07
2019-01-29T04:19:36.205Z,23.17
2019-01-29T04:24:52.226Z,21.80
2019-01-29T04:30:08.226Z,24.70
2019-01-29T04:35:23.501Z,21.60
2019-01-29T04:40:39.457Z,22.70
2019-01-29T04:45:55.765Z,21.40
2019-01-29T04:51:09.733Z,21.87
2019-01-29T04:56:13.162Z,21.67
2019-01-29T05:01:35.929Z,22.70
2019-01-29T05:06:58.925Z,20.60
2019-01-29T05:12:21.942Z,21.03
2019-01-29T05:17:44.729Z,24.23
2019-01-29T05:23:07.796Z,18.83
2019-01-29T05:28:30.814Z,21.87
2019-01-29T05:33:53.850Z,21.83
2019-01-29T05:39:16.853Z,21.07
2019-01-29T05:44:32.678Z,18.37
2019-01-29T05:49:48.232Z,20.90
2019-01-29T05:55:04.021Z,27.93
2019-01-29T06:00:19.988Z,25.27
2019-01-29T06:05:35.445Z,26.70
2019-01-29T06:10:51.415Z,25.67
2019-01-29T06:16:07.323Z,27.07
2019-01-29T06:21:22.883Z,29.27
2019-01-29T06:26:38.613Z,23.37
2019-01-29T06:31:54.660Z,28.53
2019-01-29T06:37:10.210Z,25.37
2019-01-29T06:42:25.961Z,24.93
2019-01-29T06:47:42.092Z,28.47
2019-01-29T06:52:57.331Z,23.77
2019-01-29T06:58:12.798Z,25.53
2019-01-29T07:03:29.036Z,24.03
2019-01-29T07:08:44.664Z,18.57
2019-01-29T07:14:00.786Z,22.50
2019-01-29T07:19:18.191Z,24.40
2019-01-29T07:24:42.415Z,22.73
2019-01-29T07:29:52.077Z,20.90
2019-01-29T07:35:07.520Z,23.60
2019-01-29T07:40:22.817Z,25.97
2019-01-29T07:45:38.561Z,27.47
2019-01-29T07:50:54.434Z,29.10
2019-01-29T07:56:10.045Z,31.57
2019-01-29T08:01:25.360Z,30.40
2019-01-29T08:06:42.277Z,28.13
2019-01-29T08:11:58.817Z,28.07
2019-01-29T08:17:14.801Z,30.87
2019-01-29T08:22:30.046Z,31.23
2019-01-29T08:27:46.029Z,27.80
2019-01-29T08:33:01.874Z,25.73
2019-01-29T08:38:17.668Z,26.77
2019-01-29T08:43:33.991Z,29.10
2019-01-29T08:48:51.066Z,28.57
2019-01-29T08:54:06.914Z,30.37
2019-01-29T08:59:22.171Z,26.03
2019-01-29T09:04:37.787Z,26.03
2019-01-29T09:09:53.856Z,27.63
2019-01-29T09:15:09.227Z,27.70
2019-01-29T09:20:26.094Z,22.77
2019-01-29T09:25:41.425Z,22.93
2019-01-29T09:30:57.150Z,23.80
2019-01-29T09:36:13.092Z,20.90
2019-01-29T09:41:28.848Z,21.27
2019-01-29T09:46:44.796Z,20.40
2019-01-29T09:52:00.407Z,16.47
2019-01-29T09:57:16.536Z,18.43
2019-01-29T10:02:31.819Z,22.83
2019-01-29T10:07:48.000Z,23.60
2019-01-29T10:13:04.271Z,18.50
2019-01-29T10:18:19.950Z,15.57
2019-01-29T10:23:35.530Z,17.23
2019-01-29T10:28:51.861Z,15.67
2019-01-29T10:34:07.273Z,19.93
2019-01-29T10:39:22.490Z,18.53
2019-01-29T10:44:37.696Z,19.40
2019-01-29T10:49:53.194Z,16.43
2019-01-29T10:55:08.913Z,19.33
2019-01-29T11:00:24.482Z,23.00
2019-01-29T11:05:39.821Z,19.23
2019-01-29T11:10:55.710Z,18.00
2019-01-29T11:16:11.001Z,15.77
2019-01-29T11:21:26.719Z,13.37
2019-01-29T11:26:42.474Z,15.20
2019-01-29T11:31:57.842Z,17.67
2019-01-29T11:37:13.688Z,16.00
2019-01-29T11:42:29.845Z,16.50
2019-01-29T11:47:45.693Z,9.93
2019-01-29T11:53:01.014Z,9.33
2019-01-29T11:58:16.378Z,10.30
2019-01-29T12:03:31.773Z,10.13
2019-01-29T12:08:47.950Z,8.60
2019-01-29T12:14:03.365Z,12.33
2019-01-29T12:19:18.830Z,11.17
2019-01-29T12:24:34.184Z,10.00
2019-01-29T12:29:49.753Z,7.33
2019-01-29T12:35:05.625Z,9.03
2019-01-29T12:40:21.140Z,10.27
2019-01-29T12:45:37.126Z,7.13
2019-01-29T12:50:54.058Z,10.80
2019-01-29T12:56:09.589Z,10.10
2019-01-29T13:01:24.977Z,9.83
2019-01-29T13:06:41.165Z,6.23
2019-01-29T13:11:56.853Z,7.17
2019-01-29T13:17:13.266Z,4.07
2019-01-29T13:22:29.202Z,8.57
2019-01-29T13:27:44.613Z,11.47
2019-01-29T13:33:00.232Z,7.37
2019-01-29T13:38:15.674Z,7.87
2019-01-29T13:43:31.381Z,8.00
2019-01-29T13:48:47.282Z,11.67
2019-01-29T13:54:02.714Z,4.43
2019-01-29T13:59:18.801Z,3.83
2019-01-29T14:04:34.813Z,7.70
2019-01-29T14:09:50.062Z,6.53
2019-01-29T14:15:05.880Z,5.33
2019-01-29T14:20:22.238Z,10.17
2019-01-29T14:25:37.468Z,9.10
2019-01-29T14:30:53.719Z,14.67
2019-01-29T14:36:16.454Z,9.10
2019-01-29T14:41:26.761Z,2.70
2019-01-29T14:46:42.723Z,7.23
2019-01-29T14:51:58.241Z,3.07
2019-01-29T14:57:13.850Z,4.97
2019-01-29T15:02:29.730Z,9.43
2019-01-29T15:07:45.134Z,5.80
2019-01-29T15:13:01.054Z,4.47
2019-01-29T15:23:44.728Z,3.87
2019-01-29T15:29:00.973Z,4.93
2019-01-29T15:34:16.276Z,4.57
2019-01-29T15:39:31.884Z,5.83
2019-01-29T15:44:47.682Z,3.40
2019-01-29T15:50:03.267Z,4.20
2019-01-29T15:55:19.521Z,4.00
2019-01-29T16:00:34.993Z,4.80
2019-01-29T16:05:51.297Z,4.53
2019-01-29T16:11:06.715Z,2.80
2019-01-29T16:16:22.527Z,4.17
2019-01-29T16:21:37.805Z,2.70
2019-01-29T16:26:53.576Z,7.87
2019-01-29T16:32:10.854Z,3.27
2019-01-29T16:37:26.700Z,2.83
2019-01-29T16:42:42.739Z,4.50
2019-01-29T16:47:58.778Z,4.47
2019-01-29T16:53:14.726Z,4.20
2019-01-29T16:58:30.210Z,6.33
2019-01-29T17:03:45.722Z,4.77
2019-01-29T17:09:00.905Z,4.37
2019-01-29T17:14:16.914Z,3.10
2019-01-29T17:19:32.797Z,21.93
2019-01-29T17:24:48.515Z,5.43
2019-01-29T17:30:04.437Z,9.63
2019-01-29T17:35:19.801Z,5.00
2019-01-29T17:40:35.262Z,4.90
2019-01-29T17:45:50.754Z,7.20
2019-01-29T17:51:06.225Z,5.73
2019-01-29T17:56:21.761Z,8.03
2019-01-29T18:01:37.997Z,3.47
2019-01-29T18:06:53.197Z,7.70
2019-01-29T18:12:08.357Z,5.77
2019-01-29T18:17:24.618Z,13.47
2019-01-29T18:22:40.434Z,13.97
2019-01-29T18:28:01.339Z,4.67
2019-01-29T18:33:13.578Z,6.07
2019-01-29T18:38:29.213Z,12.43
2019-01-29T18:43:45.237Z,6.90
2019-01-29T18:49:00.948Z,7.70
2019-01-29T18:54:16.510Z,9.43
2019-01-29T18:59:31.926Z,6.10
2019-01-29T19:04:47.092Z,4.83
2019-01-29T19:10:03.125Z,14.27
2019-01-29T19:15:19.319Z,7.37
2019-01-29T19:20:35.218Z,8.50
2019-01-29T19:25:52.485Z,8.00
2019-01-29T19:31:08.482Z,5.57
2019-01-29T19:36:23.981Z,8.60
2019-01-29T19:41:39.694Z,13.47
2019-01-29T19:46:55.197Z,11.27
2019-01-29T19:52:11.413Z,7.23
2019-01-29T19:57:27.485Z,10.27
2019-01-29T20:02:43.045Z,9.60
2019-01-29T20:07:58.546Z,9.67
2019-01-29T20:13:14.118Z,19.07
2019-01-29T20:18:29.850Z,16.43
2019-01-29T20:23:45.663Z,10.43
2019-01-29T20:29:01.073Z,8.07
2019-01-29T20:34:17.120Z,8.37
2019-01-29T20:39:34.918Z,13.87
2019-01-29T20:44:50.197Z,11.47
2019-01-29T20:50:06.317Z,19.90
2019-01-29T20:55:22.265Z,26.63
2019-01-29T21:00:38.605Z,7.17
2019-01-29T21:11:34.294Z,25.63
2019-01-29T21:16:50.385Z,12.83
2019-01-29T21:22:05.932Z,23.00
2019-01-29T21:27:21.664Z,9.87
2019-01-29T21:32:37.390Z,17.67
2019-01-29T21:37:52.696Z,28.83
2019-01-29T21:43:08.096Z,7.37
2019-01-29T21:48:24.028Z,20.03
2019-01-29T21:53:40.345Z,16.17
2019-01-29T21:58:55.885Z,10.73
2019-01-29T22:04:11.618Z,14.13
2019-01-29T22:09:27.346Z,6.60
2019-01-29T22:14:42.907Z,11.63
2019-01-29T22:19:58.516Z,5.37
2019-01-29T22:25:14.257Z,6.77
2019-01-29T22:30:30.225Z,8.90
2019-01-29T22:35:46.150Z,13.83
2019-01-29T22:41:01.788Z,15.23
2019-01-29T22:46:17.360Z,20.00
2019-01-29T22:51:32.824Z,4.50
2019-01-29T22:56:48.124Z,5.23
2019-01-29T23:02:03.715Z,5.20
2019-01-29T23:07:19.274Z,6.00
2019-01-29T23:12:34.561Z,5.03
2019-01-29T23:17:50.232Z,5.27
2019-01-29T23:23:06.025Z,6.77
2019-01-29T23:28:21.542Z,7.97
2019-01-29T23:33:37.080Z,6.17
2019-01-29T23:38:53.016Z,3.97
2019-01-29T23:44:09.057Z,4.60
2019-01-29T23:49:24.935Z,5.97
2019-01-29T23:54:40.498Z,6.13
2019-01-29T23:59:55.961Z,7.17
